createdAt,value
2023-03-28T00:00:14.416Z,2.10
2023-03-28T00:02:41.501Z,2.13
2023-03-28T00:05:11.379Z,2.10
2023-03-28T00:07:40.208Z,2.10
2023-03-28T00:10:09.360Z,2.08
2023-03-28T00:12:36.484Z,1.90
2023-03-28T00:15:04.742Z,2.15
2023-03-28T00:17:31.870Z,2.25
2023-03-28T00:19:59.586Z,2.10
2023-03-28T00:22:30.400Z,2.15
2023-03-28T00:24:58.646Z,1.65
2023-03-28T00:27:26.772Z,2.90
2023-03-28T00:29:54.230Z,2.40
2023-03-28T00:32:21.165Z,1.90
2023-03-28T00:34:48.604Z,1.58
2023-03-28T00:37:17.785Z,1.75
2023-03-28T00:39:49.841Z,1.88
2023-03-28T00:42:17.608Z,2.88
2023-03-28T00:44:53.122Z,2.08
2023-03-28T00:47:40.652Z,2.10
2023-03-28T00:50:13.608Z,1.75
2023-03-28T00:52:47.377Z,1.73
2023-03-28T00:55:20.054Z,1.92
2023-03-28T00:57:49.136Z,2.35
2023-03-28T01:00:19.388Z,1.70
2023-03-28T01:02:52.310Z,1.83
2023-03-28T01:05:25.053Z,1.65
2023-03-28T01:07:57.548Z,2.40
2023-03-28T01:10:26.481Z,1.48
2023-03-28T01:12:55.533Z,2.05
2023-03-28T01:15:23.153Z,1.77
2023-03-28T01:17:51.118Z,1.73
2023-03-28T01:20:54.217Z,1.60
2023-03-28T01:24:11.773Z,1.80
2023-03-28T01:26:49.412Z,1.70
2023-03-28T01:30:07.916Z,2.30
2023-03-28T01:33:23.747Z,1.88
2023-03-28T01:36:34.434Z,1.80
2023-03-28T01:39:09.804Z,1.67
2023-03-28T01:41:47.435Z,1.67
2023-03-28T01:44:24.671Z,1.50
2023-03-28T01:47:00.108Z,2.28
2023-03-28T01:49:35.922Z,2.03
2023-03-28T01:52:14.831Z,2.00
2023-03-28T01:54:50.547Z,2.78
2023-03-28T01:57:24.285Z,2.28
2023-03-28T01:59:59.851Z,2.55
2023-03-28T02:02:32.825Z,1.95
2023-03-28T02:05:04.273Z,1.67
2023-03-28T02:07:34.744Z,2.20
2023-03-28T02:10:05.072Z,2.05
2023-03-28T02:12:38.342Z,2.42
2023-03-28T02:15:10.988Z,2.10
2023-03-28T02:17:43.894Z,2.55
2023-03-28T02:20:16.578Z,2.10
2023-03-28T02:22:48.981Z,2.13
2023-03-28T02:25:17.050Z,2.72
2023-03-28T02:27:46.377Z,2.00
2023-03-28T02:30:14.406Z,2.10
2023-03-28T02:32:43.941Z,2.05
2023-03-28T02:35:11.713Z,2.25
2023-03-28T02:37:49.982Z,2.15
2023-03-28T02:40:33.034Z,1.70
2023-03-28T02:43:37.913Z,1.70
2023-03-28T02:46:14.721Z,1.95
2023-03-28T02:49:17.639Z,2.20
2023-03-28T02:51:59.020Z,1.63
2023-03-28T02:54:36.275Z,2.00
2023-03-28T02:57:10.810Z,2.65
2023-03-28T02:59:44.892Z,2.25
2023-03-28T03:02:17.192Z,1.75
2023-03-28T03:04:45.097Z,4.38
2023-03-28T03:07:13.737Z,1.90
2023-03-28T03:09:43.800Z,1.70
2023-03-28T03:12:13.084Z,2.00
2023-03-28T03:14:40.070Z,2.10
2023-03-28T03:17:07.045Z,1.70
2023-03-28T03:19:34.552Z,2.60
2023-03-28T03:22:02.724Z,1.77
2023-03-28T03:24:29.702Z,2.08
2023-03-28T03:26:58.498Z,2.50
2023-03-28T03:29:25.444Z,1.73
2023-03-28T03:31:52.392Z,1.70
2023-03-28T03:34:20.011Z,1.65
2023-03-28T03:36:47.769Z,1.95
2023-03-28T03:39:15.239Z,1.80
2023-03-28T03:41:42.740Z,1.98
2023-03-28T03:44:10.981Z,1.80
2023-03-28T03:46:38.575Z,2.20
2023-03-28T03:49:05.799Z,3.30
2023-03-28T03:54:19.105Z,1.88
2023-03-28T03:56:47.333Z,2.45
2023-03-28T03:59:16.535Z,1.85
2023-03-28T04:01:44.530Z,2.05
2023-03-28T04:04:13.671Z,2.03
2023-03-28T04:06:41.204Z,2.60
2023-03-28T04:09:08.912Z,2.28
2023-03-28T04:11:36.860Z,2.13
2023-03-28T04:14:04.980Z,2.85
2023-03-28T04:16:40.828Z,2.50
2023-03-28T04:19:11.286Z,2.20
2023-03-28T04:21:42.814Z,2.28
2023-03-28T04:24:11.637Z,2.78
2023-03-28T04:26:39.483Z,2.00
2023-03-28T04:31:56.530Z,2.08
2023-03-28T04:34:29.597Z,2.00
2023-03-28T04:37:02.165Z,2.25
2023-03-28T04:39:30.253Z,1.92
2023-03-28T04:42:02.319Z,2.42
2023-03-28T04:44:29.792Z,3.47
2023-03-28T04:46:59.241Z,2.28
2023-03-28T04:49:26.717Z,1.80
2023-03-28T04:51:53.866Z,2.30
2023-03-28T04:54:21.637Z,2.10
2023-03-28T04:56:49.234Z,1.85
2023-03-28T04:59:17.150Z,2.85
2023-03-28T05:01:49.725Z,1.95
2023-03-28T05:04:19.801Z,2.72
2023-03-28T05:06:48.650Z,1.80
2023-03-28T05:09:16.481Z,2.00
2023-03-28T05:11:44.415Z,1.60
2023-03-28T05:14:11.718Z,1.95
2023-03-28T05:16:39.288Z,1.85
2023-03-28T05:19:06.615Z,3.08
2023-03-28T05:21:34.919Z,3.47
2023-03-28T05:24:01.910Z,2.90
2023-03-28T05:26:28.892Z,2.47
2023-03-28T05:28:56.984Z,2.30
2023-03-28T05:31:25.949Z,2.45
2023-03-28T05:33:53.201Z,2.65
2023-03-28T05:36:20.487Z,2.63
2023-03-28T05:38:49.104Z,2.42
2023-03-28T05:41:17.214Z,2.63
2023-03-28T05:43:44.846Z,2.38
2023-03-28T05:46:12.391Z,2.58
2023-03-28T05:48:39.460Z,2.40
2023-03-28T05:51:07.564Z,2.75
2023-03-28T05:53:34.668Z,2.70
2023-03-28T05:56:03.601Z,2.33
2023-03-28T05:58:31.631Z,2.30
2023-03-28T06:01:00.755Z,2.75
2023-03-28T06:03:28.481Z,2.47
2023-03-28T06:05:55.438Z,2.67
2023-03-28T06:08:22.633Z,4.38
2023-03-28T06:10:50.081Z,2.60
2023-03-28T06:13:19.917Z,2.83
2023-03-28T06:15:46.920Z,2.45
2023-03-28T06:18:14.487Z,2.90
2023-03-28T06:20:41.939Z,4.88
2023-03-28T06:23:09.373Z,3.67
2023-03-28T06:25:36.610Z,2.65
2023-03-28T06:28:03.824Z,2.50
2023-03-28T06:30:32.172Z,2.65
2023-03-28T06:32:59.190Z,2.80
2023-03-28T06:35:26.564Z,2.42
2023-03-28T06:37:54.000Z,3.10
2023-03-28T06:40:21.009Z,3.20
2023-03-28T06:42:48.073Z,3.45
2023-03-28T06:45:15.346Z,2.55
2023-03-28T06:47:45.383Z,3.45
2023-03-28T06:50:13.221Z,2.15
2023-03-28T06:52:40.421Z,2.60
2023-03-28T06:55:38.478Z,2.42
2023-03-28T06:58:05.565Z,2.65
2023-03-28T07:00:33.014Z,2.53
2023-03-28T07:03:00.773Z,2.22
2023-03-28T07:05:28.140Z,2.72
2023-03-28T07:07:55.430Z,1.92
2023-03-28T07:10:22.731Z,2.17
2023-03-28T07:12:51.068Z,2.00
2023-03-28T07:15:19.521Z,1.85
2023-03-28T07:17:49.499Z,2.38
2023-03-28T07:20:16.898Z,2.30
2023-03-28T07:22:44.313Z,2.20
2023-03-28T07:25:11.842Z,2.63
2023-03-28T07:27:39.149Z,2.30
2023-03-28T07:30:11.675Z,2.65
2023-03-28T07:32:52.153Z,2.15
2023-03-28T07:35:23.923Z,2.75
2023-03-28T07:37:50.885Z,2.70
2023-03-28T07:40:18.226Z,1.95
2023-03-28T07:42:45.950Z,2.35
2023-03-28T07:45:14.516Z,2.10
2023-03-28T07:47:41.663Z,3.00
2023-03-28T07:50:10.097Z,2.45
2023-03-28T07:52:37.439Z,2.60
2023-03-28T07:55:05.681Z,2.60
2023-03-28T07:57:32.712Z,2.50
2023-03-28T07:59:59.844Z,2.80
2023-03-28T08:02:28.522Z,2.57
2023-03-28T08:04:55.714Z,1.90
2023-03-28T08:07:23.479Z,2.20
2023-03-28T08:09:51.520Z,1.60
2023-03-28T08:12:20.066Z,2.03
2023-03-28T08:14:47.531Z,2.07
2023-03-28T08:17:14.624Z,2.30
2023-03-28T08:19:46.665Z,2.27
2023-03-28T08:22:14.380Z,2.07
2023-03-28T08:24:42.405Z,2.13
2023-03-28T08:27:09.929Z,1.83
2023-03-28T08:29:36.946Z,2.07
2023-03-28T08:32:06.306Z,2.10
2023-03-28T08:34:33.649Z,2.73
2023-03-28T08:37:01.973Z,3.03
2023-03-28T08:39:29.093Z,2.77
2023-03-28T08:42:19.343Z,2.57
2023-03-28T08:45:02.250Z,2.60
2023-03-28T08:47:32.412Z,2.60
2023-03-28T08:50:03.967Z,2.27
2023-03-28T08:52:32.456Z,1.80
2023-03-28T08:55:02.908Z,2.23
2023-03-28T08:57:34.035Z,1.67
2023-03-28T09:00:13.124Z,2.00
2023-03-28T09:02:40.703Z,1.77
2023-03-28T09:07:59.679Z,2.23
2023-03-28T09:10:34.816Z,1.93
2023-03-28T09:13:17.125Z,2.03
2023-03-28T09:16:10.573Z,2.00
2023-03-28T09:19:07.137Z,1.93
2023-03-28T09:21:46.282Z,2.23
2023-03-28T09:24:29.020Z,3.23
2023-03-28T09:27:05.087Z,1.93
2023-03-28T09:29:34.959Z,1.93
2023-03-28T09:32:06.054Z,2.07
2023-03-28T09:34:39.305Z,2.30
2023-03-28T09:37:30.671Z,2.33
2023-03-28T09:40:07.948Z,2.83
2023-03-28T09:42:44.989Z,1.93
2023-03-28T09:45:30.319Z,1.50
2023-03-28T09:47:57.640Z,1.97
2023-03-28T09:50:24.976Z,1.10
2023-03-28T09:53:10.699Z,1.27
2023-03-28T09:55:39.114Z,1.47
2023-03-28T09:58:08.844Z,2.00
2023-03-28T10:00:40.106Z,2.73
2023-03-28T10:03:23.619Z,2.00
2023-03-28T10:05:51.739Z,2.07
2023-03-28T10:08:29.440Z,2.97
2023-03-28T10:11:04.296Z,1.60
2023-03-28T10:13:38.141Z,2.60
2023-03-28T10:16:08.748Z,1.73
2023-03-28T10:18:40.354Z,1.73
2023-03-28T10:21:14.268Z,1.40
2023-03-28T10:23:46.133Z,1.43
2023-03-28T10:26:22.434Z,1.10
2023-03-28T10:28:53.340Z,1.20
2023-03-28T10:31:29.307Z,1.20
2023-03-28T10:33:59.748Z,2.40
2023-03-28T10:36:29.827Z,1.20
2023-03-28T10:38:57.576Z,1.27
2023-03-28T10:41:27.764Z,1.43
2023-03-28T10:43:57.032Z,1.00
2023-03-28T10:46:29.690Z,1.40
2023-03-28T10:49:01.438Z,1.20
2023-03-28T10:51:31.917Z,3.00
2023-03-28T10:54:22.432Z,1.70
2023-03-28T10:56:55.429Z,1.30
2023-03-28T10:59:41.919Z,1.40
2023-03-28T11:02:43.140Z,1.70
2023-03-28T11:08:34.350Z,1.03
2023-03-28T11:11:15.062Z,1.00
2023-03-28T11:13:53.641Z,1.17
2023-03-28T11:16:31.545Z,1.00
2023-03-28T11:19:11.259Z,1.30
2023-03-28T11:21:50.329Z,1.60
2023-03-28T11:24:33.591Z,1.27
2023-03-28T11:27:15.551Z,1.50
2023-03-28T11:29:49.392Z,1.30
2023-03-28T11:32:22.982Z,1.10
2023-03-28T11:35:03.737Z,1.03
2023-03-28T11:37:37.171Z,1.20
2023-03-28T11:40:15.449Z,1.03
2023-03-28T11:42:47.428Z,1.20
2023-03-28T11:45:41.889Z,1.00
2023-03-28T11:48:20.055Z,1.00
2023-03-28T11:50:57.657Z,1.20
2023-03-28T11:53:29.901Z,1.17
2023-03-28T11:56:06.621Z,1.57
2023-03-28T11:58:39.938Z,1.13
2023-03-28T12:01:12.670Z,1.70
2023-03-28T12:03:56.180Z,1.50
2023-03-28T12:06:31.443Z,1.07
2023-03-28T12:09:05.941Z,0.90
2023-03-28T12:11:39.745Z,1.00
2023-03-28T12:14:37.115Z,1.10
2023-03-28T12:17:18.044Z,1.10
2023-03-28T12:19:48.388Z,1.10
2023-03-28T12:22:22.855Z,2.20
2023-03-28T12:24:58.407Z,1.20
2023-03-28T12:27:37.366Z,1.27
2023-03-28T12:30:14.644Z,1.33
2023-03-28T12:32:52.146Z,1.93
2023-03-28T12:35:26.385Z,2.37
2023-03-28T12:38:05.715Z,1.10
2023-03-28T12:40:59.624Z,1.40
2023-03-28T12:43:31.315Z,1.17
2023-03-28T12:46:02.488Z,1.20
2023-03-28T12:51:33.361Z,1.17
2023-03-28T12:54:07.915Z,1.33
2023-03-28T12:56:35.743Z,1.47
2023-03-28T12:59:36.470Z,1.10
2023-03-28T13:02:13.075Z,1.20
2023-03-28T13:04:52.885Z,1.13
2023-03-28T13:07:28.176Z,1.37
2023-03-28T13:10:06.845Z,1.27
2023-03-28T13:12:49.261Z,1.37
2023-03-28T13:15:32.809Z,1.67
2023-03-28T13:18:26.445Z,1.70
2023-03-28T13:20:55.693Z,1.60
2023-03-28T13:23:46.061Z,1.90
2023-03-28T13:26:14.108Z,1.80
2023-03-28T13:28:45.587Z,2.00
2023-03-28T13:31:21.705Z,1.50
2023-03-28T13:33:53.209Z,1.33
2023-03-28T13:36:28.517Z,1.63
2023-03-28T13:39:20.894Z,1.00
2023-03-28T13:42:00.940Z,1.80
2023-03-28T13:47:33.189Z,1.37
2023-03-28T13:50:06.606Z,1.10
2023-03-28T13:52:35.011Z,1.40
2023-03-28T13:55:04.635Z,1.40
2023-03-28T13:57:31.695Z,1.23
2023-03-28T14:00:01.914Z,2.10
2023-03-28T14:02:37.927Z,1.57
2023-03-28T14:05:16.082Z,1.57
2023-03-28T14:07:44.441Z,1.60
2023-03-28T14:10:28.088Z,1.30
2023-03-28T14:12:57.908Z,1.20
2023-03-28T14:15:30.415Z,1.60
2023-03-28T14:17:59.687Z,1.80
2023-03-28T14:20:28.353Z,1.40
2023-03-28T14:23:01.047Z,1.57
2023-03-28T14:25:30.562Z,1.70
2023-03-28T14:28:07.315Z,2.20
2023-03-28T14:30:40.205Z,1.60
2023-03-28T14:33:20.613Z,1.70
2023-03-28T14:35:57.659Z,1.40
2023-03-28T14:38:32.359Z,2.10
2023-03-28T14:41:12.860Z,2.30
2023-03-28T14:43:40.137Z,2.33
2023-03-28T14:46:09.827Z,2.10
2023-03-28T14:48:38.127Z,2.20
2023-03-28T14:51:06.416Z,2.27
2023-03-28T14:53:42.030Z,2.43
2023-03-28T14:56:13.940Z,2.07
2023-03-28T14:58:44.105Z,2.40
2023-03-28T15:01:23.084Z,2.67
2023-03-28T15:03:54.594Z,2.70
2023-03-28T15:06:23.325Z,2.43
2023-03-28T15:08:52.895Z,2.10
2023-03-28T15:11:25.506Z,2.40
2023-03-28T15:14:02.192Z,2.23
2023-03-28T15:16:30.576Z,2.40
2023-03-28T15:19:06.552Z,3.13
2023-03-28T15:21:35.240Z,2.60
2023-03-28T15:24:05.359Z,2.67
2023-03-28T15:26:36.204Z,2.43
2023-03-28T15:29:05.804Z,2.03
2023-03-28T15:31:34.241Z,2.23
2023-03-28T15:34:01.325Z,3.10
2023-03-28T15:36:32.403Z,2.47
2023-03-28T15:39:01.254Z,3.20
2023-03-28T15:41:43.263Z,2.80
2023-03-28T15:44:25.377Z,2.20
2023-03-28T15:46:54.105Z,2.80
2023-03-28T15:49:21.476Z,2.67
2023-03-28T15:51:52.068Z,2.67
2023-03-28T15:54:30.348Z,2.10
2023-03-28T15:57:02.293Z,2.27
2023-03-28T15:59:35.442Z,2.30
2023-03-28T16:02:30.051Z,2.40
2023-03-28T16:04:59.970Z,1.93
2023-03-28T16:07:27.583Z,2.07
2023-03-28T16:09:54.823Z,2.60
2023-03-28T16:12:25.944Z,2.87
2023-03-28T16:14:54.084Z,2.87
2023-03-28T16:17:25.231Z,2.33
2023-03-28T16:19:52.607Z,2.10
2023-03-28T16:22:21.138Z,2.40
2023-03-28T16:24:49.035Z,2.53
2023-03-28T16:27:17.359Z,3.30
2023-03-28T16:29:46.963Z,2.27
2023-03-28T16:32:16.987Z,2.33
2023-03-28T16:34:44.785Z,3.07
2023-03-28T16:37:12.387Z,2.80
2023-03-28T16:39:39.684Z,2.43
2023-03-28T16:42:06.968Z,2.10
2023-03-28T16:44:34.784Z,3.03
2023-03-28T16:47:03.600Z,2.43
2023-03-28T16:52:16.247Z,2.30
2023-03-28T16:54:44.794Z,2.50
2023-03-28T16:57:12.059Z,2.20
2023-03-28T16:59:39.182Z,2.30
2023-03-28T17:02:07.713Z,2.67
2023-03-28T17:04:36.190Z,2.40
2023-03-28T17:07:03.500Z,2.67
2023-03-28T17:09:33.062Z,2.57
2023-03-28T17:12:00.811Z,2.30
2023-03-28T17:14:28.495Z,5.67
2023-03-28T17:16:55.630Z,2.93
2023-03-28T17:19:24.195Z,3.10
2023-03-28T17:21:51.612Z,2.27
2023-03-28T17:24:21.709Z,2.50
2023-03-28T17:26:48.875Z,2.70
2023-03-28T17:29:16.368Z,2.20
2023-03-28T17:31:44.096Z,2.30
2023-03-28T17:34:12.753Z,2.50
2023-03-28T17:36:41.440Z,2.50
2023-03-28T17:39:08.974Z,2.00
2023-03-28T17:41:37.724Z,2.30
2023-03-28T17:44:06.684Z,2.70
2023-03-28T17:46:34.436Z,2.37
2023-03-28T17:49:01.832Z,2.77
2023-03-28T17:51:29.097Z,2.70
2023-03-28T17:53:58.572Z,3.00
2023-03-28T17:56:26.274Z,2.63
2023-03-28T17:58:54.092Z,3.33
2023-03-28T18:01:24.590Z,6.10
2023-03-28T18:03:55.171Z,6.50
2023-03-28T18:06:23.484Z,4.83
2023-03-28T18:08:50.793Z,9.30
2023-03-28T18:11:20.596Z,3.67
2023-03-28T18:13:48.231Z,5.30
2023-03-28T18:16:18.676Z,8.27
2023-03-28T18:18:47.125Z,10.93
2023-03-28T18:21:15.088Z,15.30
2023-03-28T18:23:42.630Z,6.50
2023-03-28T18:26:10.027Z,7.13
2023-03-28T18:28:38.670Z,8.30
2023-03-28T18:31:11.031Z,5.30
2023-03-28T18:33:39.640Z,4.43
2023-03-28T18:36:08.544Z,3.30
2023-03-28T18:38:37.066Z,4.17
2023-03-28T18:41:04.933Z,4.87
2023-03-28T18:43:32.218Z,7.90
2023-03-28T18:46:01.380Z,6.40
2023-03-28T18:48:29.771Z,4.20
2023-03-28T18:50:58.656Z,5.27
2023-03-28T18:53:27.618Z,3.50
2023-03-28T18:55:55.618Z,3.43
2023-03-28T18:58:26.286Z,5.00
2023-03-28T19:00:59.893Z,5.57
2023-03-28T19:03:31.558Z,9.83
2023-03-28T19:06:01.226Z,8.40
2023-03-28T19:08:29.765Z,8.40
2023-03-28T19:10:59.183Z,10.00
2023-03-28T19:13:28.812Z,6.40
2023-03-28T19:16:00.496Z,4.30
2023-03-28T19:18:30.380Z,3.77
2023-03-28T19:20:58.763Z,4.50
2023-03-28T19:23:28.070Z,4.50
2023-03-28T19:25:56.718Z,3.73
2023-03-28T19:28:24.872Z,3.80
2023-03-28T19:30:57.738Z,3.60
2023-03-28T19:33:25.769Z,3.10
2023-03-28T19:35:54.547Z,3.43
2023-03-28T19:38:22.897Z,3.83
2023-03-28T19:40:56.402Z,5.37
2023-03-28T19:43:24.850Z,3.40
2023-03-28T19:45:52.638Z,4.30
2023-03-28T19:48:20.739Z,3.50
2023-03-28T19:50:49.296Z,3.43
2023-03-28T19:53:17.969Z,3.30
2023-03-28T19:55:52.695Z,5.20
2023-03-28T19:58:19.983Z,4.27
2023-03-28T20:00:48.349Z,3.60
2023-03-28T20:03:16.904Z,3.90
2023-03-28T20:05:46.522Z,4.53
2023-03-28T20:08:14.313Z,4.67
2023-03-28T20:10:44.889Z,3.63
2023-03-28T20:13:12.504Z,3.23
2023-03-28T20:15:41.474Z,3.83
2023-03-28T20:18:14.584Z,3.70
2023-03-28T20:20:42.682Z,5.57
2023-03-28T20:23:11.762Z,3.70
2023-03-28T20:25:39.050Z,3.13
2023-03-28T20:28:10.432Z,2.40
2023-03-28T20:30:38.069Z,2.50
2023-03-28T20:33:05.764Z,2.30
2023-03-28T20:35:33.041Z,2.67
2023-03-28T20:38:00.563Z,2.07
2023-03-28T20:43:20.131Z,2.00
2023-03-28T20:45:53.832Z,4.40
2023-03-28T20:48:25.950Z,3.67
2023-03-28T20:50:55.750Z,3.10
2023-03-28T20:53:22.949Z,3.10
2023-03-28T20:56:00.227Z,2.60
2023-03-28T20:58:29.470Z,2.80
2023-03-28T21:00:57.817Z,3.70
2023-03-28T21:03:45.603Z,2.47
2023-03-28T21:06:13.253Z,2.43
2023-03-28T21:08:42.813Z,2.77
2023-03-28T21:11:12.450Z,2.77
2023-03-28T21:13:42.045Z,2.90
2023-03-28T21:16:11.409Z,2.37
2023-03-28T21:18:38.665Z,3.00
2023-03-28T21:21:07.836Z,2.83
2023-03-28T21:23:39.935Z,2.37
2023-03-28T21:26:09.857Z,2.50
2023-03-28T21:28:38.226Z,2.17
2023-03-28T21:31:10.270Z,2.70
2023-03-28T21:33:38.918Z,3.80
2023-03-28T21:36:09.006Z,3.87
2023-03-28T21:38:36.222Z,2.70
2023-03-28T21:41:04.131Z,2.30
2023-03-28T21:43:31.482Z,2.57
2023-03-28T21:45:58.879Z,3.00
2023-03-28T21:48:28.311Z,3.13
2023-03-28T21:50:59.302Z,3.30
2023-03-28T21:53:28.785Z,2.80
2023-03-28T21:55:56.793Z,2.70
2023-03-28T21:58:24.284Z,2.37
2023-03-28T22:00:51.546Z,2.43
2023-03-28T22:03:19.138Z,3.33
2023-03-28T22:05:50.653Z,3.07
2023-03-28T22:08:18.189Z,5.50
2023-03-28T22:10:48.461Z,5.50
2023-03-28T22:13:16.687Z,3.60
2023-03-28T22:15:44.460Z,2.80
2023-03-28T22:18:12.620Z,2.70
2023-03-28T22:20:42.580Z,2.17
2023-03-28T22:23:12.053Z,4.50
2023-03-28T22:25:39.671Z,4.80
2023-03-28T22:28:09.979Z,3.37
2023-03-28T22:30:39.728Z,3.10
2023-03-28T22:33:09.761Z,2.93
2023-03-28T22:35:37.931Z,2.87
2023-03-28T22:38:06.020Z,2.87
2023-03-28T22:40:35.080Z,2.23
2023-03-28T22:43:03.686Z,2.70
2023-03-28T22:45:31.429Z,2.93
2023-03-28T22:48:00.743Z,3.23
2023-03-28T22:50:28.532Z,3.20
2023-03-28T22:52:56.502Z,2.80
2023-03-28T22:55:24.487Z,2.50
2023-03-28T22:57:53.942Z,2.90
2023-03-28T23:00:23.038Z,3.10
2023-03-28T23:02:52.284Z,2.83
2023-03-28T23:05:20.328Z,3.40
2023-03-28T23:07:48.770Z,3.10
2023-03-28T23:10:20.381Z,2.60
2023-03-28T23:12:48.689Z,2.43
2023-03-28T23:15:18.417Z,3.10
2023-03-28T23:17:46.361Z,4.10
2023-03-28T23:20:17.684Z,3.90
2023-03-28T23:22:47.970Z,4.30
2023-03-28T23:25:18.994Z,3.40
2023-03-28T23:27:47.425Z,2.70
2023-03-28T23:30:17.366Z,2.40
2023-03-28T23:32:44.706Z,2.60
2023-03-28T23:35:12.875Z,2.97
2023-03-28T23:37:40.118Z,2.80
2023-03-28T23:40:15.217Z,2.50
2023-03-28T23:42:44.623Z,2.00
2023-03-28T23:45:16.569Z,2.60
2023-03-28T23:47:46.306Z,2.57
2023-03-28T23:50:14.261Z,2.50
2023-03-28T23:52:41.701Z,2.67
2023-03-28T23:55:09.883Z,2.40
2023-03-28T23:57:37.325Z,2.20
